createdAt,value
2023-04-18T00:00:59.564Z,98270.00
2023-04-18T00:03:26.177Z,98278.00
2023-04-18T00:05:52.515Z,98270.00
2023-04-18T00:08:18.731Z,98286.00
2023-04-18T00:10:45.431Z,98268.00
2023-04-18T00:13:11.667Z,98289.00
2023-04-18T00:15:38.097Z,98264.00
2023-04-18T00:18:05.256Z,98269.00
2023-04-18T00:20:32.237Z,98259.00
2023-04-18T00:22:59.850Z,98259.00
2023-04-18T00:25:26.423Z,98258.00
2023-04-18T00:27:52.590Z,98273.00
2023-04-18T00:30:18.876Z,98249.00
2023-04-18T00:32:45.162Z,98247.00
2023-04-18T00:35:11.397Z,98270.00
2023-04-18T00:37:37.693Z,98268.00
2023-04-18T00:40:04.996Z,98267.00
2023-04-18T00:42:31.169Z,98257.00
2023-04-18T00:44:57.590Z,98259.00
2023-04-18T00:47:23.839Z,98259.00
2023-04-18T00:49:51.010Z,98256.00
2023-04-18T00:52:18.021Z,98271.00
2023-04-18T00:54:44.740Z,98251.00
2023-04-18T00:57:12.554Z,98273.00
2023-04-18T00:59:38.925Z,98259.00
2023-04-18T01:02:07.354Z,98254.00
2023-04-18T01:04:33.689Z,98261.00
2023-04-18T01:07:01.487Z,98262.00
2023-04-18T01:09:29.251Z,98258.00
2023-04-18T01:11:55.891Z,98260.00
2023-04-18T01:14:22.661Z,98268.00
2023-04-18T01:16:49.008Z,98273.00
2023-04-18T01:19:18.412Z,98263.00
2023-04-18T01:21:44.938Z,98248.00
2023-04-18T01:28:03.873Z,98253.00
2023-04-18T01:30:30.331Z,98248.00
2023-04-18T01:33:00.231Z,98237.00
2023-04-18T01:35:26.845Z,98246.00
2023-04-18T01:37:56.737Z,98252.00
2023-04-18T01:40:24.021Z,98253.00
2023-04-18T01:42:50.724Z,98259.00
2023-04-18T01:45:18.899Z,98259.00
2023-04-18T01:47:46.020Z,98259.00
2023-04-18T01:50:13.196Z,98242.00
2023-04-18T01:52:39.499Z,98243.00
2023-04-18T01:55:06.103Z,98232.00
2023-04-18T01:57:35.816Z,98247.00
2023-04-18T02:00:05.712Z,98234.00
2023-04-18T02:02:40.806Z,98240.00
2023-04-18T02:05:07.956Z,98238.00
2023-04-18T02:07:36.841Z,98234.00
2023-04-18T02:10:03.739Z,98241.00
2023-04-18T02:12:31.521Z,98250.00
2023-04-18T02:14:57.676Z,98232.00
2023-04-18T02:17:24.396Z,98247.00
2023-04-18T02:19:53.360Z,98248.00
2023-04-18T02:22:19.536Z,98250.00
2023-04-18T02:24:45.754Z,98252.00
2023-04-18T02:27:12.696Z,98237.00
2023-04-18T02:29:39.248Z,98232.00
2023-04-18T02:32:05.892Z,98250.00
2023-04-18T02:34:32.947Z,98232.00
2023-04-18T02:36:59.146Z,98229.00
2023-04-18T02:39:25.306Z,98235.00
2023-04-18T02:41:51.426Z,98243.00
2023-04-18T02:44:17.563Z,98237.00
2023-04-18T02:46:43.737Z,98230.00
2023-04-18T02:49:12.496Z,98248.00
2023-04-18T02:51:38.675Z,98254.00
2023-04-18T02:54:05.321Z,98245.00
2023-04-18T02:56:44.695Z,98238.00
2023-04-18T02:59:33.787Z,98242.00
2023-04-18T03:02:20.016Z,98233.00
2023-04-18T03:04:52.317Z,98251.00
2023-04-18T03:07:18.883Z,98252.00
2023-04-18T03:09:45.127Z,98256.00
2023-04-18T03:12:22.456Z,98245.00
2023-04-18T03:14:48.655Z,98238.00
2023-04-18T03:17:15.250Z,98246.00
2023-04-18T03:19:46.833Z,98247.00
2023-04-18T03:22:15.660Z,98256.00
2023-04-18T03:24:53.499Z,98252.00
2023-04-18T03:27:22.436Z,98242.00
2023-04-18T03:29:48.701Z,98251.00
2023-04-18T03:32:16.492Z,98259.00
2023-04-18T03:34:43.041Z,98260.00
2023-04-18T03:37:09.929Z,98262.00
2023-04-18T03:39:42.282Z,98252.00
2023-04-18T03:42:08.834Z,98250.00
2023-04-18T03:44:35.568Z,98264.00
2023-04-18T03:47:03.181Z,98247.00
2023-04-18T03:49:30.879Z,98253.00
2023-04-18T03:51:57.011Z,98237.00
2023-04-18T03:54:23.999Z,98247.00
2023-04-18T03:56:50.337Z,98240.00
2023-04-18T03:59:16.524Z,98252.00
2023-04-18T04:01:46.763Z,98245.00
2023-04-18T04:04:14.667Z,98247.00
2023-04-18T04:06:41.299Z,98251.00
2023-04-18T04:09:07.487Z,98257.00
2023-04-18T04:11:33.852Z,98250.00
2023-04-18T04:14:00.468Z,98248.00
2023-04-18T04:16:33.212Z,98246.00
2023-04-18T04:18:59.716Z,98242.00
2023-04-18T04:21:32.292Z,98261.00
2023-04-18T04:23:58.757Z,98251.00
2023-04-18T04:26:30.022Z,98261.00
2023-04-18T04:29:03.073Z,98262.00
2023-04-18T04:31:31.359Z,98266.00
2023-04-18T04:33:57.508Z,98257.00
2023-04-18T04:36:26.614Z,98256.00
2023-04-18T04:38:54.424Z,98253.00
2023-04-18T04:41:29.027Z,98275.00
2023-04-18T04:43:55.238Z,98266.00
2023-04-18T04:46:29.748Z,98274.00
2023-04-18T04:48:57.406Z,98272.00
2023-04-18T04:51:25.413Z,98263.00
2023-04-18T04:53:52.055Z,98290.00
2023-04-18T04:56:18.597Z,98268.00
2023-04-18T04:58:45.062Z,98268.00
2023-04-18T05:01:24.220Z,98287.00
2023-04-18T05:03:51.873Z,98279.00
2023-04-18T05:06:19.983Z,98270.00
2023-04-18T05:08:50.310Z,98275.00
2023-04-18T05:11:17.264Z,98289.00
2023-04-18T05:13:43.426Z,98275.00
2023-04-18T05:16:10.166Z,98284.00
2023-04-18T05:18:40.578Z,98273.00
2023-04-18T05:21:07.233Z,98275.00
2023-04-18T05:23:36.162Z,98266.00
2023-04-18T05:26:05.861Z,98267.00
2023-04-18T05:28:32.489Z,98280.00
2023-04-18T05:31:01.773Z,98289.00
2023-04-18T05:33:29.043Z,98287.00
2023-04-18T05:35:56.792Z,98267.00
2023-04-18T05:38:23.085Z,98275.00
2023-04-18T05:40:50.453Z,98291.00
2023-04-18T05:43:18.687Z,98294.00
2023-04-18T05:45:44.975Z,98294.00
2023-04-18T05:48:11.783Z,98294.00
2023-04-18T05:50:38.055Z,98290.00
2023-04-18T05:53:04.448Z,98264.00
2023-04-18T05:55:31.194Z,98288.00
2023-04-18T05:57:57.599Z,98284.00
2023-04-18T06:00:24.194Z,98275.00
2023-04-18T06:02:50.485Z,98288.00
2023-04-18T06:05:16.922Z,98288.00
2023-04-18T06:07:43.248Z,98269.00
2023-04-18T06:10:12.838Z,98280.00
2023-04-18T06:12:39.781Z,98278.00
2023-04-18T06:15:07.016Z,98279.00
2023-04-18T06:17:34.218Z,98290.00
2023-04-18T06:20:02.587Z,98291.00
2023-04-18T06:22:28.718Z,98305.00
2023-04-18T06:24:55.122Z,98302.00
2023-04-18T06:27:30.612Z,98303.00
2023-04-18T06:29:57.965Z,98301.00
2023-04-18T06:32:24.397Z,98306.00
2023-04-18T06:34:53.826Z,98315.00
2023-04-18T06:37:20.328Z,98318.00
2023-04-18T06:39:46.609Z,98299.00
2023-04-18T06:42:12.810Z,98299.00
2023-04-18T06:44:43.912Z,98274.00
2023-04-18T06:47:11.093Z,98288.00
2023-04-18T06:49:37.288Z,98289.00
2023-04-18T06:52:03.621Z,98294.00
2023-04-18T06:54:30.072Z,98299.00
2023-04-18T06:56:58.842Z,98302.00
2023-04-18T06:59:26.202Z,98287.00
2023-04-18T07:01:52.762Z,98304.00
2023-04-18T07:04:19.541Z,98298.00
2023-04-18T07:06:46.151Z,98305.00
2023-04-18T07:09:12.311Z,98306.00
2023-04-18T07:11:39.807Z,98302.00
2023-04-18T07:14:05.978Z,98302.00
2023-04-18T07:16:32.449Z,98306.00
2023-04-18T07:18:58.594Z,98326.00
2023-04-18T07:21:24.860Z,98321.00
2023-04-18T07:23:51.010Z,98323.00
2023-04-18T07:26:17.155Z,98322.00
2023-04-18T07:28:43.295Z,98308.00
2023-04-18T07:31:10.712Z,98307.00
2023-04-18T07:33:38.192Z,98323.00
2023-04-18T07:36:05.307Z,98327.00
2023-04-18T07:38:34.551Z,98335.00
2023-04-18T07:41:01.761Z,98339.00
2023-04-18T07:43:28.454Z,98328.00
2023-04-18T07:45:55.333Z,98335.00
2023-04-18T07:48:21.831Z,98324.00
2023-04-18T07:50:48.892Z,98335.00
2023-04-18T07:53:15.416Z,98346.00
2023-04-18T07:55:42.644Z,98334.00
2023-04-18T07:58:09.440Z,98350.00
2023-04-18T08:00:38.274Z,98333.00
2023-04-18T08:03:06.835Z,98343.00
2023-04-18T08:05:33.462Z,98350.00
2023-04-18T08:07:59.829Z,98341.00
2023-04-18T08:10:26.463Z,98345.00
2023-04-18T08:12:52.604Z,98361.00
2023-04-18T08:15:18.815Z,98344.00
2023-04-18T08:17:48.151Z,98351.00
2023-04-18T08:20:14.885Z,98344.00
2023-04-18T08:22:53.261Z,98353.00
2023-04-18T08:25:27.988Z,98350.00
2023-04-18T08:27:54.556Z,98346.00
2023-04-18T08:30:20.894Z,98338.00
2023-04-18T08:32:47.230Z,98344.00
2023-04-18T08:35:13.451Z,98349.00
2023-04-18T08:37:39.898Z,98356.00
2023-04-18T08:40:07.387Z,98360.00
2023-04-18T08:42:34.937Z,98336.00
2023-04-18T08:45:01.239Z,98361.00
2023-04-18T08:47:30.819Z,98347.00
2023-04-18T08:49:57.765Z,98357.00
2023-04-18T08:52:26.100Z,98347.00
2023-04-18T08:54:52.738Z,98347.00
2023-04-18T08:57:25.914Z,98339.00
2023-04-18T08:59:53.283Z,98333.00
2023-04-18T09:02:22.874Z,98343.00
2023-04-18T09:04:52.098Z,98342.00
2023-04-18T09:07:27.965Z,98350.00
2023-04-18T09:09:56.895Z,98335.00
2023-04-18T09:12:28.858Z,98347.00
2023-04-18T09:15:09.643Z,98365.00
2023-04-18T09:17:42.994Z,98351.00
2023-04-18T09:20:11.022Z,98359.00
2023-04-18T09:22:50.743Z,98341.00
2023-04-18T09:25:52.500Z,98355.00
2023-04-18T09:28:29.344Z,98350.00
2023-04-18T09:30:58.437Z,98347.00
2023-04-18T09:33:32.343Z,98354.00
2023-04-18T09:36:24.379Z,98365.00
2023-04-18T09:38:53.832Z,98360.00
2023-04-18T09:41:22.636Z,98365.00
2023-04-18T09:43:48.903Z,98347.00
2023-04-18T09:46:16.801Z,98345.00
2023-04-18T09:48:43.182Z,98374.00
2023-04-18T09:51:14.458Z,98339.00
2023-04-18T09:53:52.425Z,98343.00
2023-04-18T09:56:28.829Z,98345.00
2023-04-18T09:59:08.326Z,98339.00
2023-04-18T10:01:36.007Z,98338.00
2023-04-18T10:04:05.818Z,98336.00
2023-04-18T10:06:39.168Z,98335.00
2023-04-18T10:09:08.098Z,98339.00
2023-04-18T10:11:35.362Z,98350.00
2023-04-18T10:14:08.011Z,98334.00
2023-04-18T10:16:36.313Z,98330.00
2023-04-18T10:19:21.187Z,98343.00
2023-04-18T10:21:56.206Z,98337.00
2023-04-18T10:24:56.283Z,98331.00
2023-04-18T10:27:47.648Z,98329.00
2023-04-18T10:30:17.954Z,98344.00
2023-04-18T10:32:47.449Z,98338.00
2023-04-18T10:35:13.683Z,98327.00
2023-04-18T10:37:50.586Z,98331.00
2023-04-18T10:40:30.747Z,98328.00
2023-04-18T10:42:57.714Z,98319.00
2023-04-18T10:45:26.101Z,98319.00
2023-04-18T10:48:29.119Z,98324.00
2023-04-18T10:51:13.247Z,98329.00
2023-04-18T10:53:56.808Z,98324.00
2023-04-18T10:56:25.537Z,98325.00
2023-04-18T10:58:52.574Z,98331.00
2023-04-18T11:01:28.636Z,98334.00
2023-04-18T11:03:58.471Z,98324.00
2023-04-18T11:06:26.401Z,98317.00
2023-04-18T11:09:12.975Z,98321.00
2023-04-18T11:11:40.706Z,98314.00
2023-04-18T11:14:07.137Z,98329.00
2023-04-18T11:16:33.826Z,98309.00
2023-04-18T11:19:00.212Z,98318.00
2023-04-18T11:21:30.245Z,98329.00
2023-04-18T11:23:58.108Z,98321.00
2023-04-18T11:26:28.509Z,98328.00
2023-04-18T11:28:57.760Z,98318.00
2023-04-18T11:31:24.545Z,98321.00
2023-04-18T11:33:51.815Z,98321.00
2023-04-18T11:36:18.113Z,98325.00
2023-04-18T11:38:44.338Z,98317.00
2023-04-18T11:41:14.858Z,98325.00
2023-04-18T11:43:45.861Z,98318.00
2023-04-18T11:46:12.845Z,98314.00
2023-04-18T11:48:42.243Z,98331.00
2023-04-18T11:51:33.631Z,98322.00
2023-04-18T11:54:00.022Z,98326.00
2023-04-18T11:56:26.336Z,98332.00
2023-04-18T11:58:52.742Z,98335.00
2023-04-18T12:01:25.060Z,98321.00
2023-04-18T12:04:07.323Z,98335.00
2023-04-18T12:07:00.381Z,98325.00
2023-04-18T12:09:27.172Z,98324.00
2023-04-18T12:12:01.978Z,98331.00
2023-04-18T12:14:29.246Z,98347.00
2023-04-18T12:16:55.615Z,98328.00
2023-04-18T12:19:29.457Z,98337.00
2023-04-18T12:22:00.328Z,98335.00
2023-04-18T12:24:28.178Z,98336.00
2023-04-18T12:26:56.709Z,98330.00
2023-04-18T12:29:24.266Z,98326.00
2023-04-18T12:31:50.496Z,98327.00
2023-04-18T12:34:16.640Z,98325.00
2023-04-18T12:36:42.826Z,98342.00
2023-04-18T12:39:09.590Z,98334.00
2023-04-18T12:41:36.132Z,98342.00
2023-04-18T12:44:02.667Z,98345.00
2023-04-18T12:46:29.034Z,98326.00
2023-04-18T12:48:56.691Z,98329.00
2023-04-18T12:51:25.636Z,98330.00
2023-04-18T12:53:51.898Z,98342.00
2023-04-18T12:56:18.147Z,98327.00
2023-04-18T12:58:44.831Z,98349.00
2023-04-18T13:01:13.289Z,98338.00
2023-04-18T13:03:39.668Z,98340.00
2023-04-18T13:06:06.075Z,98334.00
2023-04-18T13:08:32.845Z,98323.00
2023-04-18T13:10:59.225Z,98335.00
2023-04-18T13:13:26.033Z,98337.00
2023-04-18T13:15:52.192Z,98337.00
2023-04-18T13:18:18.352Z,98335.00
2023-04-18T13:20:44.773Z,98319.00
2023-04-18T13:23:10.896Z,98330.00
2023-04-18T13:25:37.628Z,98344.00
2023-04-18T13:28:03.934Z,98337.00
2023-04-18T13:30:31.226Z,98333.00
2023-04-18T13:32:57.456Z,98338.00
2023-04-18T13:35:23.710Z,98346.00
2023-04-18T13:37:49.895Z,98341.00
2023-04-18T13:40:16.086Z,98329.00
2023-04-18T13:42:42.574Z,98342.00
2023-04-18T13:45:09.336Z,98340.00
2023-04-18T13:47:35.883Z,98343.00
2023-04-18T13:50:02.160Z,98353.00
2023-04-18T13:52:28.277Z,98350.00
2023-04-18T13:54:54.704Z,98334.00
2023-04-18T13:57:21.239Z,98348.00
2023-04-18T13:59:47.488Z,98331.00
2023-04-18T14:02:14.111Z,98337.00
2023-04-18T14:04:40.624Z,98330.00
2023-04-18T14:07:07.271Z,98331.00
2023-04-18T14:09:33.402Z,98335.00
2023-04-18T14:11:59.644Z,98324.00
2023-04-18T14:14:25.885Z,98332.00
2023-04-18T14:16:53.261Z,98321.00
2023-04-18T14:19:19.492Z,98335.00
2023-04-18T14:21:47.029Z,98323.00
2023-04-18T14:24:13.509Z,98311.00
2023-04-18T14:26:39.675Z,98321.00
2023-04-18T14:29:05.802Z,98319.00
2023-04-18T14:31:32.007Z,98325.00
2023-04-18T14:33:58.405Z,98320.00
2023-04-18T14:36:25.782Z,98310.00
2023-04-18T14:38:51.944Z,98302.00
2023-04-18T14:41:18.170Z,98311.00
2023-04-18T14:43:44.481Z,98300.00
2023-04-18T14:46:17.947Z,98315.00
2023-04-18T14:48:48.037Z,98306.00
2023-04-18T14:51:15.778Z,98302.00
2023-04-18T14:53:42.192Z,98297.00
2023-04-18T14:56:08.491Z,98292.00
2023-04-18T14:58:35.641Z,98289.00
2023-04-18T15:01:03.398Z,98289.00
2023-04-18T15:03:29.751Z,98286.00
2023-04-18T15:05:57.052Z,98274.00
2023-04-18T15:08:23.444Z,98274.00
2023-04-18T15:10:49.750Z,98289.00
2023-04-18T15:13:16.057Z,98298.00
2023-04-18T15:15:42.324Z,98294.00
2023-04-18T15:18:10.360Z,98303.00
2023-04-18T15:20:36.812Z,98286.00
2023-04-18T15:23:03.062Z,98285.00
2023-04-18T15:25:29.831Z,98304.00
2023-04-18T15:27:56.840Z,98283.00
2023-04-18T15:30:23.339Z,98289.00
2023-04-18T15:32:49.528Z,98291.00
2023-04-18T15:35:15.729Z,98292.00
2023-04-18T15:37:42.618Z,98285.00
2023-04-18T15:40:10.875Z,98289.00
2023-04-18T15:42:40.505Z,98298.00
2023-04-18T15:45:07.262Z,98293.00
2023-04-18T15:47:34.247Z,98293.00
2023-04-18T15:50:02.012Z,98297.00
2023-04-18T15:52:28.719Z,98287.00
2023-04-18T15:54:57.162Z,98291.00
2023-04-18T15:57:23.457Z,98288.00
2023-04-18T15:59:49.607Z,98300.00
2023-04-18T16:02:15.746Z,98297.00
2023-04-18T16:04:45.146Z,98296.00
2023-04-18T16:07:11.933Z,98292.00
2023-04-18T16:09:38.265Z,98288.00
2023-04-18T16:12:06.369Z,98290.00
2023-04-18T16:14:33.124Z,98297.00
2023-04-18T16:16:59.716Z,98308.00
2023-04-18T16:19:25.996Z,98299.00
2023-04-18T16:21:52.218Z,98296.00
2023-04-18T16:24:18.605Z,98296.00
2023-04-18T16:26:44.873Z,98310.00
2023-04-18T16:29:11.245Z,98305.00
2023-04-18T16:31:37.575Z,98308.00
2023-04-18T16:34:03.704Z,98305.00
2023-04-18T16:36:33.914Z,98314.00
2023-04-18T16:39:00.134Z,98308.00
2023-04-18T16:41:26.509Z,98294.00
2023-04-18T16:43:53.423Z,98306.00
2023-04-18T16:46:19.702Z,98295.00
2023-04-18T16:48:45.928Z,98307.00
2023-04-18T16:51:12.424Z,98314.00
2023-04-18T16:53:38.587Z,98311.00
2023-04-18T16:56:07.334Z,98299.00
2023-04-18T16:58:33.625Z,98308.00
2023-04-18T17:01:01.521Z,98300.00
2023-04-18T17:03:27.810Z,98301.00
2023-04-18T17:05:55.187Z,98314.00
2023-04-18T17:08:21.363Z,98298.00
2023-04-18T17:10:51.957Z,98313.00
2023-04-18T17:13:18.393Z,98303.00
2023-04-18T17:15:45.072Z,98330.00
2023-04-18T17:18:11.212Z,98324.00
2023-04-18T17:20:37.445Z,98318.00
2023-04-18T17:23:03.966Z,98312.00
2023-04-18T17:25:30.176Z,98315.00
2023-04-18T17:27:56.487Z,98317.00
2023-04-18T17:30:22.768Z,98318.00
2023-04-18T17:32:49.910Z,98334.00
2023-04-18T17:35:16.124Z,98323.00
2023-04-18T17:37:42.265Z,98320.00
2023-04-18T17:40:10.656Z,98329.00
2023-04-18T17:42:37.217Z,98318.00
2023-04-18T17:45:06.744Z,98312.00
2023-04-18T17:47:34.362Z,98334.00
2023-04-18T17:50:00.807Z,98326.00
2023-04-18T17:52:30.723Z,98320.00
2023-04-18T17:54:58.411Z,98332.00
2023-04-18T17:57:25.868Z,98334.00
2023-04-18T17:59:52.523Z,98334.00
2023-04-18T18:02:19.770Z,98343.00
2023-04-18T18:04:46.270Z,98336.00
2023-04-18T18:07:12.620Z,98324.00
2023-04-18T18:09:40.682Z,98345.00
2023-04-18T18:12:09.081Z,98343.00
2023-04-18T18:14:35.939Z,98337.00
2023-04-18T18:17:02.211Z,98338.00
2023-04-18T18:19:28.456Z,98339.00
2023-04-18T18:21:54.555Z,98343.00
2023-04-18T18:24:20.715Z,98353.00
2023-04-18T18:26:47.972Z,98350.00
2023-04-18T18:29:15.184Z,98342.00
2023-04-18T18:31:41.842Z,98341.00
2023-04-18T18:34:07.991Z,98362.00
2023-04-18T18:36:34.216Z,98350.00
2023-04-18T18:39:00.643Z,98357.00
2023-04-18T18:41:26.763Z,98348.00
2023-04-18T18:43:52.946Z,98356.00
2023-04-18T18:46:19.786Z,98344.00
2023-04-18T18:48:46.200Z,98355.00
2023-04-18T18:51:12.530Z,98350.00
2023-04-18T18:53:40.480Z,98356.00
2023-04-18T18:56:08.006Z,98362.00
2023-04-18T18:58:35.106Z,98368.00
2023-04-18T19:01:02.759Z,98375.00
2023-04-18T19:03:29.402Z,98385.00
2023-04-18T19:05:55.911Z,98375.00
2023-04-18T19:08:22.068Z,98372.00
2023-04-18T19:10:48.537Z,98371.00
2023-04-18T19:13:14.946Z,98383.00
2023-04-18T19:15:41.311Z,98379.00
2023-04-18T19:18:07.829Z,98378.00
2023-04-18T19:20:34.188Z,98386.00
2023-04-18T19:23:00.327Z,98384.00
2023-04-18T19:25:26.755Z,98391.00
2023-04-18T19:27:53.127Z,98392.00
2023-04-18T19:30:19.545Z,98390.00
2023-04-18T19:32:46.025Z,98389.00
2023-04-18T19:35:12.710Z,98392.00
2023-04-18T19:37:38.858Z,98395.00
2023-04-18T19:40:06.243Z,98388.00
2023-04-18T19:42:32.436Z,98392.00
2023-04-18T19:44:59.509Z,98370.00
2023-04-18T19:47:27.187Z,98385.00
2023-04-18T19:49:53.682Z,98384.00
2023-04-18T19:52:19.852Z,98392.00
2023-04-18T19:54:46.190Z,98383.00
2023-04-18T19:57:12.351Z,98395.00
2023-04-18T19:59:38.534Z,98376.00
2023-04-18T20:02:06.339Z,98385.00
2023-04-18T20:04:33.404Z,98397.00
2023-04-18T20:07:00.453Z,98394.00
2023-04-18T20:09:26.653Z,98394.00
2023-04-18T20:11:53.637Z,98411.00
2023-04-18T20:14:20.482Z,98408.00
2023-04-18T20:16:49.161Z,98409.00
2023-04-18T20:19:17.260Z,98419.00
2023-04-18T20:21:43.691Z,98406.00
2023-04-18T20:24:10.091Z,98403.00
2023-04-18T20:26:36.618Z,98421.00
2023-04-18T20:29:03.406Z,98412.00
2023-04-18T20:31:29.782Z,98400.00
2023-04-18T20:33:55.914Z,98391.00
2023-04-18T20:36:22.813Z,98410.00
2023-04-18T20:38:49.629Z,98410.00
2023-04-18T20:41:20.248Z,98411.00
2023-04-18T20:43:46.402Z,98400.00
2023-04-18T20:46:13.217Z,98412.00
2023-04-18T20:48:39.776Z,98398.00
2023-04-18T20:51:06.007Z,98398.00
2023-04-18T20:53:32.152Z,98408.00
2023-04-18T20:56:02.475Z,98411.00
2023-04-18T20:58:29.514Z,98413.00
2023-04-18T21:00:55.709Z,98417.00
2023-04-18T21:03:22.334Z,98414.00
2023-04-18T21:05:48.547Z,98398.00
2023-04-18T21:08:14.918Z,98402.00
2023-04-18T21:10:41.018Z,98411.00
2023-04-18T21:13:08.495Z,98413.00
2023-04-18T21:15:35.280Z,98418.00
2023-04-18T21:18:01.552Z,98430.00
2023-04-18T21:20:27.727Z,98413.00
2023-04-18T21:22:53.862Z,98420.00
2023-04-18T21:25:20.509Z,98424.00
2023-04-18T21:27:46.712Z,98420.00
2023-04-18T21:30:13.135Z,98417.00
2023-04-18T21:32:39.366Z,98422.00
2023-04-18T21:35:06.130Z,98403.00
2023-04-18T21:37:32.335Z,98423.00
2023-04-18T21:40:00.553Z,98422.00
2023-04-18T21:42:26.779Z,98416.00
2023-04-18T21:44:54.063Z,98425.00
2023-04-18T21:47:23.206Z,98410.00
2023-04-18T21:49:52.816Z,98431.00
2023-04-18T21:52:18.961Z,98432.00
2023-04-18T21:54:45.223Z,98418.00
2023-04-18T21:57:11.382Z,98424.00
2023-04-18T21:59:37.641Z,98416.00
2023-04-18T22:02:04.853Z,98422.00
2023-04-18T22:04:31.349Z,98425.00
2023-04-18T22:06:57.718Z,98422.00
2023-04-18T22:09:24.234Z,98428.00
2023-04-18T22:11:56.100Z,98419.00
2023-04-18T22:14:24.164Z,98427.00
2023-04-18T22:16:50.554Z,98413.00
2023-04-18T22:19:18.388Z,98414.00
2023-04-18T22:21:44.500Z,98403.00
2023-04-18T22:24:10.705Z,98419.00
2023-04-18T22:26:36.895Z,98407.00
2023-04-18T22:29:03.059Z,98410.00
2023-04-18T22:31:29.543Z,98415.00
2023-04-18T22:33:55.843Z,98417.00
2023-04-18T22:36:22.214Z,98409.00
2023-04-18T22:38:48.592Z,98413.00
2023-04-18T22:41:14.792Z,98418.00
2023-04-18T22:43:41.145Z,98405.00
2023-04-18T22:46:07.323Z,98421.00
2023-04-18T22:48:34.317Z,98419.00
2023-04-18T22:51:01.165Z,98422.00
2023-04-18T22:53:27.500Z,98429.00
2023-04-18T22:55:53.883Z,98411.00
2023-04-18T22:58:20.487Z,98424.00
2023-04-18T23:00:46.642Z,98427.00
2023-04-18T23:03:12.937Z,98435.00
2023-04-18T23:05:40.601Z,98438.00
2023-04-18T23:08:07.099Z,98424.00
2023-04-18T23:10:33.546Z,98439.00
2023-04-18T23:12:59.790Z,98437.00
2023-04-18T23:15:26.196Z,98428.00
2023-04-18T23:17:53.038Z,98427.00
2023-04-18T23:20:20.413Z,98437.00
2023-04-18T23:22:49.224Z,98429.00
2023-04-18T23:25:15.724Z,98440.00
2023-04-18T23:27:42.104Z,98431.00
2023-04-18T23:30:09.194Z,98420.00
2023-04-18T23:32:35.463Z,98434.00
2023-04-18T23:35:04.358Z,98431.00
2023-04-18T23:37:30.823Z,98435.00
2023-04-18T23:39:58.959Z,98428.00
2023-04-18T23:42:25.336Z,98432.00
2023-04-18T23:44:51.886Z,98435.00
2023-04-18T23:47:18.412Z,98438.00
2023-04-18T23:49:44.933Z,98435.00
2023-04-18T23:52:11.096Z,98428.00
2023-04-18T23:54:37.462Z,98433.00
2023-04-18T23:57:03.751Z,98425.00
2023-04-18T23:59:29.932Z,98415.00
